Time;durP1;ratioP1;P1;durP2;ratioP2;P2;SDS_P1;SDS_P2;PMS_P1;PMS_P2;Temp;Humidity;BMP_temperature;BMP_pressure;BME280_temperature;BME280_humidity;BME280_pressure;Samples;Min_cycle;Max_cycle;Signal;HPM_P1;HPM_P2
2022/09/15 00:01:06;;;;;;;55.75;17.63;;;12.30;99.90;;;;;;5026336;28;20462;-64
2022/09/15 00:03:33;;;;;;;58.80;19.35;;;12.30;99.90;;;;;;5026530;28;20021;-64
2022/09/15 00:05:58;;;;;;;55.97;18.42;;;12.30;99.90;;;;;;5026908;28;20029;-64
2022/09/15 00:08:24;;;;;;;55.15;18.90;;;12.30;99.90;;;;;;5034582;28;20029;-64
2022/09/15 00:11:21;;;;;;;47.20;17.58;;;12.20;99.90;;;;;;5026178;28;20528;-64
2022/09/15 00:13:47;;;;;;;52.83;16.85;;;12.00;99.90;;;;;;5021817;28;20519;-64
2022/09/15 00:16:14;;;;;;;53.28;19.48;;;12.00;99.90;;;;;;5023622;28;20455;-64
2022/09/15 00:18:40;;;;;;;48.40;16.25;;;11.80;99.90;;;;;;5021815;28;20029;-64
2022/09/15 00:21:09;;;;;;;45.72;15.35;;;11.70;99.90;;;;;;5027301;28;20120;-64
2022/09/15 00:23:35;;;;;;;55.83;17.58;;;11.50;99.90;;;;;;5020672;28;20055;-64
2022/09/15 00:26:01;;;;;;;53.63;16.58;;;11.50;99.90;;;;;;5025503;28;20540;-64
2022/09/15 00:28:26;;;;;;;40.97;16.30;;;11.40;99.90;;;;;;5025820;28;20037;-65
2022/09/15 00:30:54;;;;;;;49.08;17.15;;;11.30;99.90;;;;;;5026911;28;20033;-64
2022/09/15 00:33:21;;;;;;;51.42;16.42;;;11.20;99.90;;;;;;5025036;28;20032;-64
2022/09/15 00:35:49;;;;;;;50.75;16.98;;;11.20;99.90;;;;;;5025636;28;20113;-64
2022/09/15 00:38:16;;;;;;;46.47;16.65;;;11.10;99.90;;;;;;5019276;28;20021;-64
2022/09/15 00:40:51;;;;;;;44.97;16.42;;;11.20;99.90;;;;;;5024248;28;20436;-64
2022/09/15 00:43:20;;;;;;;46.33;16.08;;;11.10;99.90;;;;;;5022389;28;20406;-64
2022/09/15 00:45:47;;;;;;;55.07;19.67;;;11.10;99.90;;;;;;5026132;28;20110;-64
2022/09/15 00:48:17;;;;;;;50.08;17.27;;;11.30;99.90;;;;;;5021677;28;20025;-64
2022/09/15 00:50:47;;;;;;;46.60;17.10;;;11.30;99.90;;;;;;5025422;28;20120;-64
2022/09/15 00:53:14;;;;;;;48.10;15.60;;;11.00;99.90;;;;;;5025932;28;20144;-64
2022/09/15 00:55:44;;;;;;;49.40;16.63;;;10.80;99.90;;;;;;5023600;28;20420;-64
2022/09/15 00:58:14;;;;;;;54.97;18.23;;;10.80;99.90;;;;;;5037274;28;20111;-64
2022/09/15 01:00:55;;;;;;;59.72;18.98;;;10.90;99.90;;;;;;5032608;28;20056;-64
2022/09/15 01:03:22;;;;;;;48.13;18.10;;;11.10;99.90;;;;;;5024489;28;20025;-64
2022/09/15 01:05:53;;;;;;;55.30;18.80;;;11.10;99.90;;;;;;5027472;28;20469;-64
2022/09/15 01:08:33;;;;;;;56.35;19.70;;;11.20;99.90;;;;;;5025671;28;20105;-64
2022/09/15 01:10:59;;;;;;;61.80;20.10;;;11.20;99.90;;;;;;5020167;28;20043;-64
2022/09/15 01:13:25;;;;;;;63.75;21.48;;;11.30;99.90;;;;;;5018196;28;20037;-64
2022/09/15 01:16:22;;;;;;;55.63;19.73;;;11.30;99.90;;;;;;5026018;28;20068;-64
2022/09/15 01:19:25;;;;;;;68.68;22.88;;;11.10;99.90;;;;;;5034887;28;20034;-64
2022/09/15 01:22:20;;;;;;;66.10;22.15;;;11.50;99.90;;;;;;5023428;28;20442;-64
2022/09/15 01:25:05;;;;;;;69.68;23.13;;;11.30;99.90;;;;;;5015204;28;20064;-64
2022/09/15 01:28:00;;;;;;;62.22;19.15;;;11.00;99.90;;;;;;5025695;28;20425;-64
2022/09/15 01:30:30;;;;;;;57.00;19.35;;;10.90;99.90;;;;;;5017818;28;20017;-64
2022/09/15 01:33:21;;;;;;;58.15;19.80;;;10.80;99.90;;;;;;5025510;28;20033;-64
2022/09/15 01:36:00;;;;;;;58.30;20.25;;;10.80;99.90;;;;;;5024787;28;20550;-64
2022/09/15 01:38:52;;;;;;;60.65;21.05;;;10.70;99.90;;;;;;5022599;28;20105;-64
2022/09/15 01:42:02;;;;;;;61.83;21.50;;;10.70;99.90;;;;;;5016483;28;20028;-64
2022/09/15 01:44:53;;;;;;;62.60;20.50;;;10.80;99.90;;;;;;5019089;28;20363;-64
2022/09/15 01:47:21;;;;;;;54.50;20.38;;;10.80;99.90;;;;;;5020079;28;20038;-64
2022/09/15 01:49:55;;;;;;;54.35;20.48;;;10.70;99.90;;;;;;5024944;28;20332;-64
2022/09/15 01:52:23;;;;;;;56.10;20.30;;;10.60;99.90;;;;;;5026613;28;20033;-64
2022/09/15 01:54:56;;;;;;;60.78;21.30;;;10.50;99.90;;;;;;5025156;28;20043;-64
2022/09/15 01:57:23;;;;;;;62.22;20.42;;;10.50;99.90;;;;;;5022840;28;20051;-64
2022/09/15 01:59:50;;;;;;;56.42;19.30;;;10.50;99.90;;;;;;5023118;28;20096;-64
2022/09/15 02:02:25;;;;;;;59.45;20.67;;;10.40;99.90;;;;;;5028314;28;20022;-64
2022/09/15 02:05:17;;;;;;;60.45;19.55;;;10.40;99.90;;;;;;5025243;28;20044;-64
2022/09/15 02:07:54;;;;;;;60.00;21.15;;;10.40;99.90;;;;;;5026865;28;20056;-64
2022/09/15 02:10:39;;;;;;;55.65;18.75;;;10.40;99.90;;;;;;5043422;28;20032;-65
2022/09/15 02:13:10;;;;;;;52.85;18.73;;;10.40;99.90;;;;;;5022860;28;20444;-64
2022/09/15 02:15:42;;;;;;;56.45;19.42;;;10.30;99.90;;;;;;5026808;28;20049;-64
2022/09/15 02:18:13;;;;;;;59.85;20.05;;;10.30;99.90;;;;;;5026940;28;20458;-65
2022/09/15 02:20:48;;;;;;;51.20;18.48;;;10.30;99.90;;;;;;5026491;28;20072;-64
2022/09/15 02:23:28;;;;;;;53.80;18.80;;;10.20;99.90;;;;;;5026527;28;20095;-64
2022/09/15 02:26:04;;;;;;;56.95;19.17;;;10.20;99.90;;;;;;5026129;28;20037;-64
2022/09/15 02:28:33;;;;;;;50.90;17.77;;;10.20;99.90;;;;;;5028557;28;20033;-64
2022/09/15 02:31:01;;;;;;;54.65;18.75;;;10.20;99.90;;;;;;5024439;28;20034;-64
2022/09/15 02:33:33;;;;;;;60.45;19.88;;;10.20;99.90;;;;;;5039596;28;20422;-64
2022/09/15 02:36:00;;;;;;;55.65;18.73;;;10.20;99.90;;;;;;5028168;28;20017;-64
2022/09/15 02:38:32;;;;;;;51.15;18.20;;;10.30;99.90;;;;;;5027482;28;20084;-64
2022/09/15 02:40:58;;;;;;;51.03;19.20;;;10.40;99.90;;;;;;5019967;28;20149;-64
2022/09/15 02:43:23;;;;;;;48.60;17.30;;;10.40;99.90;;;;;;5025140;28;20124;-64
2022/09/15 02:45:49;;;;;;;57.95;19.38;;;10.50;99.90;;;;;;5027765;28;20473;-64
2022/09/15 02:48:15;;;;;;;58.13;18.13;;;10.60;99.90;;;;;;5027731;28;20449;-64
2022/09/15 02:50:40;;;;;;;52.78;18.45;;;10.60;99.90;;;;;;5024701;28;20034;-64
2022/09/15 02:53:06;;;;;;;54.50;18.38;;;10.60;99.90;;;;;;5028055;28;20033;-64
2022/09/15 02:55:33;;;;;;;54.05;19.38;;;10.70;99.90;;;;;;5041629;28;20040;-64
2022/09/15 02:57:58;;;;;;;54.38;17.25;;;10.70;99.90;;;;;;5028737;28;20052;-64
2022/09/15 03:00:27;;;;;;;53.03;18.58;;;10.70;99.90;;;;;;5022296;28;20056;-64
2022/09/15 03:02:54;;;;;;;46.38;16.73;;;10.60;99.90;;;;;;5027920;28;20075;-64
2022/09/15 03:05:25;;;;;;;53.20;18.92;;;10.60;99.90;;;;;;5026447;28;20117;-64
2022/09/15 03:07:51;;;;;;;48.13;17.92;;;10.70;99.90;;;;;;5029016;28;20052;-64
2022/09/15 03:10:17;;;;;;;55.35;18.52;;;10.70;99.90;;;;;;5024234;28;20022;-64
2022/09/15 03:12:50;;;;;;;47.10;17.35;;;10.80;99.90;;;;;;5022328;28;20393;-64
2022/09/15 03:15:19;;;;;;;46.42;16.73;;;10.80;99.90;;;;;;5022097;28;20648;-64
2022/09/15 03:17:46;;;;;;;47.22;17.95;;;10.80;99.90;;;;;;5027217;28;20555;-64
2022/09/15 03:20:21;;;;;;;54.10;18.25;;;10.70;99.90;;;;;;5022894;28;20108;-64
2022/09/15 03:22:48;;;;;;;62.28;19.60;;;10.80;99.90;;;;;;5022944;28;20042;-64
2022/09/15 03:25:14;;;;;;;55.75;19.75;;;10.80;99.90;;;;;;5027756;28;20047;-64
2022/09/15 03:27:41;;;;;;;60.17;22.00;;;11.10;99.90;;;;;;5026152;28;20029;-64
2022/09/15 03:30:08;;;;;;;60.95;21.52;;;11.30;99.90;;;;;;5023210;28;20418;-64
2022/09/15 03:32:34;;;;;;;61.10;21.70;;;11.40;99.90;;;;;;5027411;28;20055;-64
2022/09/15 03:35:00;;;;;;;65.90;21.58;;;11.50;99.90;;;;;;5024078;28;20512;-64
2022/09/15 03:37:26;;;;;;;57.60;21.05;;;11.70;99.90;;;;;;5027408;28;20108;-64
2022/09/15 03:39:52;;;;;;;61.50;21.88;;;11.80;99.90;;;;;;5017274;28;20167;-64
2022/09/15 03:42:18;;;;;;;65.40;22.83;;;11.90;99.90;;;;;;5023032;28;20441;-64
2022/09/15 03:44:44;;;;;;;63.20;21.38;;;12.00;99.90;;;;;;5028023;28;20025;-64
2022/09/15 03:47:09;;;;;;;59.65;21.90;;;12.10;99.90;;;;;;5030909;28;20374;-64
2022/09/15 03:49:35;;;;;;;67.28;23.02;;;12.20;99.90;;;;;;5027105;28;20068;-64
2022/09/15 03:52:01;;;;;;;72.57;23.65;;;12.10;99.90;;;;;;5027327;28;20536;-64
2022/09/15 03:54:26;;;;;;;59.78;22.52;;;12.10;99.90;;;;;;5028116;28;20113;-64
2022/09/15 03:56:52;;;;;;;65.13;23.58;;;12.20;99.90;;;;;;5026328;28;20491;-64
2022/09/15 03:59:19;;;;;;;63.35;22.67;;;12.20;99.90;;;;;;5022692;28;20021;-64
2022/09/15 04:01:49;;;;;;;69.85;23.67;;;12.20;99.90;;;;;;5026248;28;20108;-65
2022/09/15 04:04:16;;;;;;;68.15;23.50;;;12.20;99.90;;;;;;5022915;28;20021;-64
2022/09/15 04:06:43;;;;;;;67.40;25.30;;;12.20;99.90;;;;;;5024014;28;20045;-64
2022/09/15 04:09:09;;;;;;;63.72;24.25;;;12.20;99.90;;;;;;5026616;28;20018;-64
2022/09/15 04:11:36;;;;;;;63.95;23.60;;;12.30;99.90;;;;;;5023033;28;20029;-64
2022/09/15 04:14:02;;;;;;;67.22;23.65;;;12.30;99.90;;;;;;5029606;28;20121;-64
2022/09/15 04:16:27;;;;;;;75.93;26.15;;;12.30;99.90;;;;;;5026435;28;20112;-64
2022/09/15 04:18:56;;;;;;;65.18;23.88;;;12.40;99.90;;;;;;5023452;28;20329;-64
2022/09/15 04:21:25;;;;;;;67.03;26.15;;;12.40;99.90;;;;;;5025972;28;20045;-64
2022/09/15 04:23:52;;;;;;;65.07;22.92;;;12.50;99.90;;;;;;5021540;28;20037;-64
2022/09/15 04:26:23;;;;;;;73.57;24.30;;;12.50;99.90;;;;;;5026104;28;20517;-65
2022/09/15 04:28:49;;;;;;;66.20;24.08;;;12.50;99.90;;;;;;5028092;28;20401;-65
2022/09/15 04:31:15;;;;;;;71.68;22.50;;;12.60;99.90;;;;;;5025460;28;20025;-64
2022/09/15 04:33:43;;;;;;;62.40;22.05;;;12.60;99.90;;;;;;5025992;28;20037;-64
2022/09/15 04:36:15;;;;;;;66.25;25.17;;;12.60;99.90;;;;;;5025612;28;20029;-65
2022/09/15 04:38:41;;;;;;;64.55;24.05;;;12.50;99.90;;;;;;5023984;28;20397;-64
2022/09/15 04:41:07;;;;;;;65.78;24.27;;;12.50;99.90;;;;;;5024943;28;20041;-64
2022/09/15 04:43:33;;;;;;;62.25;22.70;;;12.60;99.90;;;;;;5022794;28;20230;-64
2022/09/15 04:45:59;;;;;;;68.10;25.02;;;12.60;99.90;;;;;;5025960;28;20053;-64
2022/09/15 04:48:26;;;;;;;71.85;23.48;;;12.60;99.90;;;;;;5026070;28;20029;-64
2022/09/15 04:50:52;;;;;;;70.43;24.92;;;12.70;99.90;;;;;;5025994;28;20112;-64
2022/09/15 04:53:18;;;;;;;65.97;24.02;;;12.70;99.90;;;;;;5025416;28;20045;-64
2022/09/15 04:55:44;;;;;;;61.88;23.00;;;12.70;99.90;;;;;;5022922;28;20032;-64
2022/09/15 04:58:10;;;;;;;66.13;23.40;;;12.70;99.90;;;;;;5021815;28;20386;-64
2022/09/15 05:00:42;;;;;;;69.28;23.73;;;12.70;99.90;;;;;;5019807;28;20060;-65
2022/09/15 05:03:12;;;;;;;61.85;22.05;;;12.80;99.90;;;;;;5023959;28;20025;-64
2022/09/15 05:05:38;;;;;;;;;;;12.80;99.90;;;;;;5027576;28;20083;-65
2022/09/15 05:08:04;;;;;;;62.97;22.80;;;12.70;99.90;;;;;;5029175;28;19995;-64
2022/09/15 05:10:29;;;;;;;55.17;22.33;;;12.80;99.90;;;;;;5025554;28;20045;-64
2022/09/15 05:12:55;;;;;;;58.13;21.38;;;12.80;99.90;;;;;;5019698;28;20029;-64
2022/09/15 05:15:21;;;;;;;56.40;21.77;;;12.80;99.90;;;;;;5022636;28;20037;-64
2022/09/15 05:17:48;;;;;;;60.30;22.50;;;12.80;99.90;;;;;;5023527;28;20026;-64
2022/09/15 05:20:14;;;;;;;60.45;23.20;;;12.90;99.90;;;;;;5025843;28;20172;-64
2022/09/15 05:22:40;;;;;;;56.47;21.80;;;12.90;99.90;;;;;;5024262;28;20124;-65
2022/09/15 05:25:05;;;;;;;61.38;22.90;;;12.90;99.90;;;;;;5025728;28;20025;-64
2022/09/15 05:27:32;;;;;;;55.10;22.80;;;12.90;99.90;;;;;;5025854;28;20030;-64
2022/09/15 05:29:58;;;;;;;61.15;22.13;;;12.90;99.90;;;;;;5023959;28;20030;-64
2022/09/15 05:32:24;;;;;;;51.45;21.95;;;12.90;99.90;;;;;;5022267;28;20037;-65
2022/09/15 05:34:50;;;;;;;52.33;17.63;;;12.90;99.90;;;;;;5023312;28;20425;-64
2022/09/15 05:37:16;;;;;;;56.33;22.38;;;12.90;99.90;;;;;;5024871;28;20021;-64
2022/09/15 05:39:41;;;;;;;56.78;20.70;;;12.90;99.90;;;;;;5030052;28;20030;-64
2022/09/15 05:42:07;;;;;;;59.90;22.20;;;13.00;99.90;;;;;;5030677;28;20026;-65
2022/09/15 05:44:33;;;;;;;55.65;21.77;;;13.00;99.90;;;;;;5028336;28;20084;-64
2022/09/15 05:46:59;;;;;;;53.10;21.17;;;13.00;99.90;;;;;;5028976;28;20084;-65
2022/09/15 05:49:25;;;;;;;57.33;21.98;;;13.00;99.90;;;;;;5025264;28;20056;-65
2022/09/15 05:51:51;;;;;;;58.28;23.10;;;13.10;99.90;;;;;;5026179;28;20041;-64
2022/09/15 05:54:16;;;;;;;58.90;20.98;;;13.10;99.90;;;;;;5027352;28;20060;-65
2022/09/15 05:56:42;;;;;;;56.10;20.25;;;13.10;99.90;;;;;;5025211;28;20033;-64
2022/09/15 05:59:08;;;;;;;51.85;20.17;;;13.10;99.90;;;;;;5026390;28;20036;-64
2022/09/15 06:01:34;;;;;;;49.35;20.08;;;13.10;99.90;;;;;;5028401;28;20025;-64
2022/09/15 06:03:59;;;;;;;62.72;22.42;;;13.20;99.90;;;;;;5026256;28;20109;-64
2022/09/15 06:06:26;;;;;;;50.72;21.65;;;13.30;99.90;;;;;;5025858;28;20104;-64
2022/09/15 06:08:54;;;;;;;58.97;22.08;;;13.30;99.90;;;;;;5028014;28;20029;-65
2022/09/15 06:11:25;;;;;;;44.85;19.77;;;13.40;99.90;;;;;;5024372;28;20029;-64
2022/09/15 06:13:51;;;;;;;50.47;19.42;;;13.40;99.90;;;;;;5026870;28;20091;-64
2022/09/15 06:16:20;;;;;;;42.90;18.88;;;13.50;99.90;;;;;;5027196;28;20322;-65
2022/09/15 06:18:47;;;;;;;51.20;19.92;;;13.50;99.90;;;;;;5019433;28;20029;-64
2022/09/15 06:21:19;;;;;;;51.10;19.45;;;13.60;99.90;;;;;;5027107;28;20057;-64
2022/09/15 06:23:45;;;;;;;42.88;18.88;;;13.60;99.90;;;;;;5025385;28;20369;-64
2022/09/15 06:26:17;;;;;;;38.97;17.88;;;13.50;99.90;;;;;;5028281;28;20052;-65
2022/09/15 06:29:00;;;;;;;42.03;18.63;;;13.60;99.90;;;;;;5023210;28;20030;-65
2022/09/15 06:31:30;;;;;;;42.50;18.08;;;13.60;99.90;;;;;;5026386;28;20034;-64
2022/09/15 06:33:56;;;;;;;41.60;16.87;;;13.60;99.90;;;;;;5022208;28;20022;-64
2022/09/15 06:36:25;;;;;;;41.97;17.90;;;13.60;99.90;;;;;;5029152;28;20343;-65
2022/09/15 06:38:51;;;;;;;42.42;17.48;;;13.70;99.90;;;;;;5022232;28;20075;-65
2022/09/15 06:41:17;;;;;;;43.38;18.85;;;13.70;99.90;;;;;;5027124;28;20034;-65
2022/09/15 06:43:43;;;;;;;39.67;17.60;;;13.70;99.90;;;;;;5028112;28;20037;-65
2022/09/15 06:46:13;;;;;;;43.08;19.17;;;13.70;99.90;;;;;;5018732;28;20034;-64
2022/09/15 06:48:39;;;;;;;43.92;18.60;;;13.70;99.90;;;;;;5025475;28;20041;-65
2022/09/15 06:51:07;;;;;;;39.33;17.67;;;13.80;99.90;;;;;;5027840;28;20094;-64
2022/09/15 06:53:35;;;;;;;40.55;17.20;;;13.80;99.90;;;;;;5024360;28;20079;-64
2022/09/15 06:56:02;;;;;;;38.50;17.90;;;13.90;99.90;;;;;;5026296;28;20392;-65
2022/09/15 06:58:29;;;;;;;42.10;17.50;;;14.00;99.90;;;;;;5022749;28;21856;-65
2022/09/15 07:00:58;;;;;;;42.38;19.92;;;13.90;99.90;;;;;;5027169;28;20037;-64
2022/09/15 07:03:24;;;;;;;38.15;17.75;;;13.90;99.90;;;;;;5028864;28;20477;-65
2022/09/15 07:05:50;;;;;;;38.72;18.05;;;14.00;99.90;;;;;;5021068;28;20040;-65
2022/09/15 07:08:15;;;;;;;41.22;17.42;;;14.10;99.90;;;;;;5026935;28;20033;-65
2022/09/15 07:10:43;;;;;;;39.80;18.38;;;14.10;99.90;;;;;;5026331;28;20602;-65
2022/09/15 07:13:09;;;;;;;41.15;18.88;;;14.10;99.90;;;;;;5022707;28;20030;-65
2022/09/15 07:15:34;;;;;;;44.65;18.40;;;14.20;99.90;;;;;;5026699;28;20069;-64
2022/09/15 07:18:00;;;;;;;37.42;16.88;;;14.30;99.90;;;;;;5037357;28;20163;-64
2022/09/15 07:20:26;;;;;;;37.17;16.02;;;14.30;99.90;;;;;;5026840;28;20112;-65
2022/09/15 07:22:52;;;;;;;37.50;15.68;;;14.40;99.90;;;;;;5024314;28;20037;-65
2022/09/15 07:25:17;;;;;;;35.90;15.65;;;14.40;99.90;;;;;;5026255;28;20025;-65
2022/09/15 07:27:43;;;;;;;34.80;15.82;;;14.40;99.90;;;;;;5022433;28;20143;-64
2022/09/15 07:30:10;;;;;;;35.70;15.70;;;14.50;99.90;;;;;;5025959;28;20095;-64
2022/09/15 07:32:36;;;;;;;32.47;14.73;;;14.50;99.90;;;;;;5028072;28;20421;-64
2022/09/15 07:35:02;;;;;;;36.08;15.80;;;14.60;99.90;;;;;;5029031;28;20037;-64
2022/09/15 07:37:27;;;;;;;30.15;14.35;;;14.70;99.90;;;;;;5026032;28;20058;-64
2022/09/15 07:39:53;;;;;;;27.95;12.15;;;14.80;99.90;;;;;;5020812;28;20442;-64
2022/09/15 07:42:19;;;;;;;30.00;14.05;;;14.70;99.90;;;;;;5022385;28;20049;-63
2022/09/15 07:44:44;;;;;;;30.55;12.68;;;14.80;99.90;;;;;;5025508;28;20037;-63
2022/09/15 07:47:10;;;;;;;31.55;13.18;;;14.70;99.90;;;;;;5025565;28;20033;-64
2022/09/15 07:49:35;;;;;;;28.38;11.57;;;14.70;99.90;;;;;;5022479;28;20029;-64
2022/09/15 07:52:01;;;;;;;27.75;12.07;;;14.80;99.90;;;;;;5026219;28;20029;-64
2022/09/15 07:54:27;;;;;;;32.05;12.20;;;14.80;99.90;;;;;;5021128;28;20102;-63
2022/09/15 07:56:53;;;;;;;26.50;10.88;;;14.90;99.90;;;;;;5022045;28;20061;-63
2022/09/15 07:59:18;;;;;;;27.92;12.13;;;15.00;99.90;;;;;;5024695;28;20079;-63
2022/09/15 08:01:44;;;;;;;26.23;10.75;;;15.20;99.90;;;;;;5025222;28;20441;-63
2022/09/15 08:04:10;;;;;;;25.60;11.48;;;15.40;99.90;;;;;;5021598;28;20473;-63
2022/09/15 08:06:35;;;;;;;20.30;10.18;;;15.70;99.90;;;;;;5026123;28;20375;-63
2022/09/15 08:09:01;;;;;;;24.50;10.05;;;15.90;99.90;;;;;;5023661;28;20252;-64
2022/09/15 08:11:27;;;;;;;22.50;9.45;;;16.10;99.90;;;;;;5024743;28;20041;-63
2022/09/15 08:13:53;;;;;;;19.80;8.13;;;16.40;99.90;;;;;;5028034;28;20034;-64
2022/09/15 08:16:21;;;;;;;19.88;8.73;;;16.40;99.90;;;;;;5026710;28;20461;-64
2022/09/15 08:18:48;;;;;;;23.75;9.02;;;16.30;99.90;;;;;;5026779;28;20014;-64
2022/09/15 08:21:16;;;;;;;18.27;7.65;;;16.40;99.90;;;;;;5021649;28;20103;-64
2022/09/15 08:23:43;;;;;;;16.85;7.97;;;16.50;99.90;;;;;;5024481;28;20037;-64
2022/09/15 08:26:10;;;;;;;20.55;8.48;;;16.50;99.90;;;;;;5025611;28;20511;-64
2022/09/15 08:28:37;;;;;;;17.95;8.13;;;16.50;99.90;;;;;;5025320;28;20033;-64
2022/09/15 08:31:06;;;;;;;16.70;7.03;;;16.50;99.90;;;;;;5025855;28;20393;-63
2022/09/15 08:33:32;;;;;;;20.13;8.35;;;16.50;99.90;;;;;;5025805;28;20124;-64
2022/09/15 08:36:07;;;;;;;14.38;7.47;;;16.70;99.90;;;;;;5025075;28;20032;-64
2022/09/15 08:38:32;;;;;;;17.60;7.45;;;16.90;99.90;;;;;;5019396;28;20033;-64
2022/09/15 08:41:03;;;;;;;15.85;6.95;;;16.90;99.90;;;;;;5033980;28;20026;-64
2022/09/15 08:43:38;;;;;;;16.35;6.82;;;16.70;99.90;;;;;;5032991;28;20041;-64
2022/09/15 08:46:08;;;;;;;11.93;5.57;;;16.70;99.90;;;;;;5022514;28;20056;-65
2022/09/15 08:48:40;;;;;;;16.60;6.03;;;16.70;99.90;;;;;;5025198;28;20492;-64
2022/09/15 08:51:14;;;;;;;18.10;5.10;;;17.10;99.90;;;;;;5030541;28;20017;-65
2022/09/15 08:53:49;;;;;;;15.00;6.10;;;17.10;99.90;;;;;;5029377;28;20040;-64
2022/09/15 08:56:18;;;;;;;18.00;6.07;;;17.00;99.90;;;;;;5041974;28;20014;-64
2022/09/15 08:58:44;;;;;;;12.55;5.20;;;17.10;99.90;;;;;;5030495;28;20185;-65
2022/09/15 09:01:16;;;;;;;12.48;5.50;;;17.20;99.90;;;;;;5023647;28;20093;-65
2022/09/15 09:03:54;;;;;;;12.43;4.78;;;17.30;99.90;;;;;;5026086;28;20041;-65
2022/09/15 09:06:36;;;;;;;14.20;5.30;;;17.40;99.90;;;;;;5026783;28;20026;-64
2022/09/15 09:09:18;;;;;;;15.27;5.57;;;17.50;99.90;;;;;;5022161;28;20041;-65
2022/09/15 09:12:18;;;;;;;13.25;5.28;;;17.60;99.90;;;;;;5023528;28;20033;-65
2022/09/15 09:14:58;;;;;;;15.32;4.93;;;17.50;99.90;;;;;;5028186;28;20132;-64
2022/09/15 09:17:55;;;;;;;11.45;4.82;;;17.50;99.90;;;;;;5029396;28;20079;-64
2022/09/15 09:20:31;;;;;;;12.98;4.65;;;17.80;99.90;;;;;;5028169;28;20126;-64
2022/09/15 09:22:58;;;;;;;16.95;4.15;;;18.30;99.90;;;;;;5028139;28;20096;-64
2022/09/15 09:25:25;;;;;;;12.52;4.07;;;18.40;99.90;;;;;;5043874;28;20567;-64
2022/09/15 09:27:51;;;;;;;9.45;3.30;;;18.20;99.90;;;;;;5046478;28;20075;-65
2022/09/15 09:30:22;;;;;;;7.97;2.97;;;17.90;99.90;;;;;;5025535;28;20132;-65
2022/09/15 09:32:56;;;;;;;11.38;2.55;;;17.90;99.90;;;;;;5018204;28;20034;-65
2022/09/15 09:35:43;;;;;;;8.40;1.70;;;17.80;99.90;;;;;;5025630;28;20414;-64
2022/09/15 09:38:11;;;;;;;6.28;1.40;;;17.80;99.90;;;;;;5026281;28;20030;-64
2022/09/15 09:40:41;;;;;;;4.78;1.20;;;18.00;99.90;;;;;;5024036;28;20033;-65
2022/09/15 09:43:08;;;;;;;4.18;1.25;;;18.20;99.90;;;;;;5022301;28;20048;-64
2022/09/15 09:45:34;;;;;;;5.88;1.50;;;18.00;99.90;;;;;;5029182;28;20468;-64
2022/09/15 09:48:05;;;;;;;7.30;1.70;;;17.70;99.90;;;;;;5027498;28;20030;-65
2022/09/15 09:50:43;;;;;;;6.15;1.30;;;17.60;99.90;;;;;;5028896;28;20226;-65
2022/09/15 09:53:30;;;;;;;10.52;1.80;;;17.70;99.90;;;;;;5028134;28;20033;-65
2022/09/15 09:56:11;;;;;;;7.40;1.50;;;17.70;99.90;;;;;;5019454;28;20017;-65
2022/09/15 09:58:36;;;;;;;8.02;1.58;;;18.20;99.90;;;;;;5041289;28;20097;-65
2022/09/15 10:01:15;;;;;;;6.20;1.40;;;18.70;99.90;;;;;;5026274;28;20113;-65
2022/09/15 10:03:42;;;;;;;8.32;1.92;;;19.20;99.90;;;;;;5019918;28;20100;-65
2022/09/15 10:06:21;;;;;;;7.60;1.33;;;18.70;99.90;;;;;;5025785;28;20385;-65
2022/09/15 10:08:58;;;;;;;9.33;2.70;;;18.70;99.90;;;;;;5026412;28;20030;-65
2022/09/15 10:12:00;;;;;;;4.28;1.33;;;19.40;99.90;;;;;;5021841;28;20382;-65
2022/09/15 10:14:38;;;;;;;8.93;1.40;;;18.90;99.90;;;;;;5001385;28;20499;-64
2022/09/15 10:17:37;;;;;;;7.53;1.33;;;18.00;99.90;;;;;;5022879;28;20038;-65
2022/09/15 10:20:05;;;;;;;8.57;1.60;;;17.70;99.90;;;;;;5024180;28;20071;-65
2022/09/15 10:22:38;;;;;;;5.75;1.35;;;17.40;99.90;;;;;;5025208;28;20098;-65
2022/09/15 10:25:19;;;;;;;8.25;1.48;;;17.10;99.90;;;;;;5023675;28;20029;-65
2022/09/15 10:28:00;;;;;;;5.97;1.52;;;17.80;99.90;;;;;;5027607;28;20381;-65
2022/09/15 10:30:26;;;;;;;7.10;1.40;;;18.30;99.90;;;;;;5026683;28;20106;-65
2022/09/15 10:32:51;;;;;;;6.50;1.20;;;18.60;99.90;;;;;;5026974;28;20524;-65
2022/09/15 10:35:19;;;;;;;4.57;1.20;;;19.10;99.90;;;;;;5025009;28;20056;-64
2022/09/15 10:38:11;;;;;;;7.05;1.20;;;18.60;99.90;;;;;;5023137;28;20381;-64
2022/09/15 10:40:45;;;;;;;10.00;1.80;;;18.60;99.90;;;;;;5025781;28;20029;-65
2022/09/15 10:43:38;;;;;;;5.03;1.38;;;18.00;99.90;;;;;;5027486;28;20021;-65
2022/09/15 10:46:09;;;;;;;4.28;1.17;;;17.80;99.90;;;;;;5027121;28;20018;-65
2022/09/15 10:48:49;;;;;;;7.55;1.50;;;17.50;99.90;;;;;;5039842;28;20535;-65
2022/09/15 10:51:39;;;;;;;6.43;1.50;;;17.40;99.90;;;;;;5024434;28;20424;-65
2022/09/15 10:54:34;;;;;;;9.10;1.40;;;17.20;99.90;;;;;;5026156;28;20041;-65
2022/09/15 10:57:23;;;;;;;5.72;1.65;;;17.10;99.90;;;;;;5025628;28;20408;-65
2022/09/15 11:00:16;;;;;;;6.68;1.45;;;16.80;99.90;;;;;;5022271;28;20041;-65
2022/09/15 11:03:00;;;;;;;7.30;1.38;;;16.70;99.90;;;;;;5027545;28;20408;-65
2022/09/15 11:05:44;;;;;;;10.93;1.45;;;16.70;99.90;;;;;;5026222;28;20506;-64
2022/09/15 11:08:30;;;;;;;12.40;2.08;;;16.40;99.90;;;;;;5020496;28;20040;-65
2022/09/15 11:11:02;;;;;;;6.63;1.90;;;16.10;99.90;;;;;;5022386;28;20030;-65
2022/09/15 11:13:51;;;;;;;7.72;1.88;;;15.40;99.90;;;;;;5025802;28;20156;-65
2022/09/15 11:16:47;;;;;;;7.95;2.40;;;15.00;99.90;;;;;;5024007;28;20049;-64
2022/09/15 11:19:45;;;;;;;9.88;2.60;;;14.80;99.90;;;;;;5027361;28;20030;-64
2022/09/15 11:22:44;;;;;;;9.80;2.10;;;14.50;99.90;;;;;;5028392;28;20239;-64
2022/09/15 11:25:26;;;;;;;7.53;2.45;;;14.60;99.90;;;;;;5021066;28;20513;-64
2022/09/15 11:27:58;;;;;;;12.20;2.78;;;14.70;99.90;;;;;;5021742;28;20396;-64
2022/09/15 11:30:31;;;;;;;7.18;2.17;;;14.90;99.90;;;;;;5026683;28;20095;-64
2022/09/15 11:33:10;;;;;;;8.38;2.20;;;15.10;99.90;;;;;;5020909;28;20112;-64
2022/09/15 11:35:45;;;;;;;12.43;2.30;;;15.50;99.90;;;;;;5033301;28;20345;-64
2022/09/15 11:38:37;;;;;;;9.05;2.03;;;15.90;99.90;;;;;;5022815;28;20160;-64
2022/09/15 11:41:22;;;;;;;8.85;2.15;;;15.90;99.90;;;;;;5022307;28;20061;-64
2022/09/15 11:44:02;;;;;;;8.02;2.00;;;16.20;99.90;;;;;;5025644;28;20025;-64
2022/09/15 11:46:50;;;;;;;7.53;1.98;;;16.40;99.90;;;;;;5020295;28;20654;-64
2022/09/15 11:49:21;;;;;;;8.18;2.10;;;16.60;99.90;;;;;;5020157;28;20657;-64
2022/09/15 11:51:55;;;;;;;8.38;2.10;;;16.70;99.90;;;;;;5022058;28;20500;-66
2022/09/15 11:55:05;;;;;;;4.78;1.30;;;17.30;99.90;;;;;;5020081;28;20022;-64
2022/09/15 11:57:45;;;;;;;8.00;1.80;;;17.80;99.90;;;;;;4985703;28;20267;-64
2022/09/15 12:00:12;;;;;;;8.35;1.73;;;17.90;99.90;;;;;;5002508;28;20025;-63
2022/09/15 12:03:02;;;;;;;9.73;1.67;;;18.00;99.90;;;;;;5019399;28;20044;-65
2022/09/15 12:05:47;;;;;;;5.93;1.50;;;18.20;99.90;;;;;;5023441;28;20128;-65
2022/09/15 12:08:37;;;;;;;8.50;1.65;;;18.70;99.90;;;;;;5014742;28;20071;-65
2022/09/15 12:11:09;;;;;;;6.20;1.80;;;19.10;99.90;;;;;;5020074;28;20056;-64
2022/09/15 12:13:35;;;;;;;4.93;1.40;;;19.50;99.90;;;;;;5013294;28;20029;-64
2022/09/15 12:16:02;;;;;;;6.40;1.77;;;19.50;99.90;;;;;;5021708;28;20026;-65
2022/09/15 12:18:52;;;;;;;8.70;1.50;;;19.70;99.90;;;;;;5015465;28;20100;-64
2022/09/15 12:21:25;;;;;;;;;;;18.90;99.90;;;;;;5019616;28;20085;-64
2022/09/15 12:23:58;;;;;;;4.38;1.27;;;19.90;99.90;;;;;;5020693;28;19963;-64
2022/09/15 12:26:25;;;;;;;4.43;1.45;;;20.70;99.90;;;;;;5036936;28;20075;-64
2022/09/15 12:29:01;;;;;;;4.47;1.33;;;20.30;99.90;;;;;;5019283;28;20374;-64
2022/09/15 12:31:38;;;;;;;6.72;1.33;;;20.90;99.90;;;;;;5017350;28;20702;-64
2022/09/15 12:34:29;;;;;;;6.00;1.38;;;21.50;99.90;;;;;;5021049;28;20477;-65
2022/09/15 12:37:12;;;;;;;5.95;1.48;;;22.10;99.90;;;;;;5020375;28;20029;-65
2022/09/15 12:39:41;;;;;;;6.03;1.20;;;20.50;99.90;;;;;;5025447;28;20034;-64
2022/09/15 12:42:09;;;;;;;9.55;1.65;;;19.90;99.90;;;;;;5020998;28;20037;-65
2022/09/15 12:44:41;;;;;;;5.63;1.23;;;20.10;99.90;;;;;;5020519;28;20278;-65
2022/09/15 12:47:16;;;;;;;8.23;1.40;;;20.40;99.90;;;;;;5023405;28;20113;-64
2022/09/15 12:49:44;;;;;;;7.25;1.63;;;19.80;99.90;;;;;;5021611;28;20033;-64
2022/09/15 12:52:11;;;;;;;9.95;1.65;;;19.30;99.90;;;;;;5022526;28;20388;-64
2022/09/15 12:54:41;;;;;;;6.63;1.65;;;18.80;99.90;;;;;;5023319;28;20025;-64
2022/09/15 12:57:15;;;;;;;;;;;18.80;99.90;;;;;;5023826;28;20083;-64